sensor_id;sensor_type;location;lat;lon;timestamp;P1;durP1;ratioP1;P2;durP2;ratioP2
23302;SDS011;11820;48.738;9.092;2023-01-29T00:01:47;10.33;;;8.73;;
23302;SDS011;11820;48.738;9.092;2023-01-29T00:04:12;12.23;;;10.10;;
23302;SDS011;11820;48.738;9.092;2023-01-29T00:06:38;10.23;;;9.20;;
23302;SDS011;11820;48.738;9.092;2023-01-29T00:09:04;11.10;;;9.80;;
23302;SDS011;11820;48.738;9.092;2023-01-29T00:11:29;12.33;;;8.97;;
23302;SDS011;11820;48.738;9.092;2023-01-29T00:13:56;12.07;;;10.10;;
23302;SDS011;11820;48.738;9.092;2023-01-29T00:16:21;10.27;;;9.27;;
23302;SDS011;11820;48.738;9.092;2023-01-29T00:18:47;14.03;;;9.40;;
23302;SDS011;11820;48.738;9.092;2023-01-29T00:21:13;10.23;;;8.83;;
23302;SDS011;11820;48.738;9.092;2023-01-29T00:23:40;13.37;;;9.23;;
23302;SDS011;11820;48.738;9.092;2023-01-29T00:26:06;9.93;;;8.93;;
23302;SDS011;11820;48.738;9.092;2023-01-29T00:28:31;9.70;;;8.67;;
23302;SDS011;11820;48.738;9.092;2023-01-29T00:30:57;9.40;;;8.40;;
23302;SDS011;11820;48.738;9.092;2023-01-29T00:33:22;9.67;;;8.77;;
23302;SDS011;11820;48.738;9.092;2023-01-29T00:35:47;10.93;;;9.77;;
23302;SDS011;11820;48.738;9.092;2023-01-29T00:38:13;10.10;;;8.90;;
23302;SDS011;11820;48.738;9.092;2023-01-29T00:40:39;11.93;;;8.73;;
23302;SDS011;11820;48.738;9.092;2023-01-29T00:43:24;11.33;;;8.47;;
23302;SDS011;11820;48.738;9.092;2023-01-29T00:46:08;9.03;;;8.13;;
23302;SDS011;11820;48.738;9.092;2023-01-29T00:48:34;10.43;;;8.60;;
23302;SDS011;11820;48.738;9.092;2023-01-29T00:51:00;9.97;;;8.53;;
23302;SDS011;11820;48.738;9.092;2023-01-29T00:53:26;9.07;;;7.90;;
23302;SDS011;11820;48.738;9.092;2023-01-29T00:55:52;8.90;;;8.00;;
23302;SDS011;11820;48.738;9.092;2023-01-29T00:58:17;8.80;;;8.00;;
23302;SDS011;11820;48.738;9.092;2023-01-29T01:00:46;8.73;;;7.83;;
23302;SDS011;11820;48.738;9.092;2023-01-29T01:03:13;9.40;;;8.37;;
23302;SDS011;11820;48.738;9.092;2023-01-29T01:05:39;9.20;;;8.20;;
23302;SDS011;11820;48.738;9.092;2023-01-29T01:08:04;8.73;;;7.77;;
23302;SDS011;11820;48.738;9.092;2023-01-29T01:10:57;9.50;;;7.53;;
23302;SDS011;11820;48.738;9.092;2023-01-29T01:13:23;9.10;;;7.50;;
23302;SDS011;11820;48.738;9.092;2023-01-29T01:15:48;10.33;;;8.00;;
23302;SDS011;11820;48.738;9.092;2023-01-29T01:18:14;9.30;;;8.10;;
23302;SDS011;11820;48.738;9.092;2023-01-29T01:20:40;8.00;;;7.20;;
23302;SDS011;11820;48.738;9.092;2023-01-29T01:23:05;9.03;;;8.13;;
23302;SDS011;11820;48.738;9.092;2023-01-29T01:25:30;9.67;;;8.30;;
23302;SDS011;11820;48.738;9.092;2023-01-29T01:27:57;9.50;;;7.87;;
23302;SDS011;11820;48.738;9.092;2023-01-29T01:30:23;9.60;;;8.17;;
23302;SDS011;11820;48.738;9.092;2023-01-29T01:32:49;11.07;;;8.63;;
23302;SDS011;11820;48.738;9.092;2023-01-29T01:35:15;9.70;;;8.50;;
23302;SDS011;11820;48.738;9.092;2023-01-29T01:37:40;9.13;;;8.20;;
23302;SDS011;11820;48.738;9.092;2023-01-29T01:40:13;9.33;;;8.43;;
23302;SDS011;11820;48.738;9.092;2023-01-29T01:42:42;9.70;;;8.27;;
23302;SDS011;11820;48.738;9.092;2023-01-29T01:45:16;8.83;;;7.93;;
23302;SDS011;11820;48.738;9.092;2023-01-29T01:47:49;8.97;;;8.07;;
23302;SDS011;11820;48.738;9.092;2023-01-29T01:50:23;9.80;;;8.00;;
23302;SDS011;11820;48.738;9.092;2023-01-29T01:53:04;9.30;;;8.33;;
23302;SDS011;11820;48.738;9.092;2023-01-29T01:55:32;9.03;;;8.13;;
23302;SDS011;11820;48.738;9.092;2023-01-29T01:58:03;8.77;;;7.87;;
23302;SDS011;11820;48.738;9.092;2023-01-29T02:00:34;9.80;;;8.40;;
23302;SDS011;11820;48.738;9.092;2023-01-29T02:03:00;9.10;;;7.90;;
23302;SDS011;11820;48.738;9.092;2023-01-29T02:05:45;8.77;;;7.87;;
23302;SDS011;11820;48.738;9.092;2023-01-29T02:11:38;8.57;;;7.60;;
23302;SDS011;11820;48.738;9.092;2023-01-29T02:14:03;8.20;;;7.40;;
23302;SDS011;11820;48.738;9.092;2023-01-29T02:16:29;8.13;;;7.33;;
23302;SDS011;11820;48.738;9.092;2023-01-29T02:18:54;9.00;;;8.10;;
23302;SDS011;11820;48.738;9.092;2023-01-29T02:32:19;7.73;;;6.77;;
23302;SDS011;11820;48.738;9.092;2023-01-29T02:35:09;8.87;;;7.30;;
23302;SDS011;11820;48.738;9.092;2023-01-29T02:40:52;8.00;;;6.60;;
23302;SDS011;11820;48.738;9.092;2023-01-29T02:46:21;9.50;;;7.10;;
23302;SDS011;11820;48.738;9.092;2023-01-29T02:49:14;8.37;;;6.60;;
23302;SDS011;11820;48.738;9.092;2023-01-29T02:51:43;8.10;;;6.87;;
23302;SDS011;11820;48.738;9.092;2023-01-29T02:54:16;8.30;;;7.50;;
23302;SDS011;11820;48.738;9.092;2023-01-29T02:56:58;7.87;;;6.17;;
23302;SDS011;11820;48.738;9.092;2023-01-29T02:59:31;7.47;;;6.60;;
23302;SDS011;11820;48.738;9.092;2023-01-29T03:02:15;7.93;;;7.00;;
23302;SDS011;11820;48.738;9.092;2023-01-29T03:04:47;7.20;;;6.50;;
23302;SDS011;11820;48.738;9.092;2023-01-29T03:07:21;8.33;;;6.67;;
23302;SDS011;11820;48.738;9.092;2023-01-29T03:10:11;6.70;;;6.10;;
23302;SDS011;11820;48.738;9.092;2023-01-29T03:12:41;9.00;;;6.17;;
23302;SDS011;11820;48.738;9.092;2023-01-29T03:15:15;7.37;;;6.67;;
23302;SDS011;11820;48.738;9.092;2023-01-29T03:20:32;7.37;;;6.67;;
23302;SDS011;11820;48.738;9.092;2023-01-29T03:23:04;9.90;;;7.17;;
23302;SDS011;11820;48.738;9.092;2023-01-29T03:25:34;7.03;;;6.37;;
23302;SDS011;11820;48.738;9.092;2023-01-29T03:28:21;7.07;;;6.47;;
23302;SDS011;11820;48.738;9.092;2023-01-29T03:31:06;7.10;;;5.97;;
23302;SDS011;11820;48.738;9.092;2023-01-29T03:36:45;6.93;;;6.33;;
23302;SDS011;11820;48.738;9.092;2023-01-29T03:39:23;7.30;;;6.60;;
23302;SDS011;11820;48.738;9.092;2023-01-29T03:41:57;7.33;;;6.53;;
23302;SDS011;11820;48.738;9.092;2023-01-29T03:49:36;6.73;;;6.13;;
23302;SDS011;11820;48.738;9.092;2023-01-29T03:52:08;7.43;;;6.73;;
23302;SDS011;11820;48.738;9.092;2023-01-29T03:57:28;8.33;;;6.83;;
23302;SDS011;11820;48.738;9.092;2023-01-29T04:05:23;8.20;;;6.80;;
23302;SDS011;11820;48.738;9.092;2023-01-29T04:07:53;8.03;;;7.03;;
23302;SDS011;11820;48.738;9.092;2023-01-29T04:10:26;8.70;;;7.13;;
23302;SDS011;11820;48.738;9.092;2023-01-29T04:12:58;9.43;;;6.83;;
23302;SDS011;11820;48.738;9.092;2023-01-29T04:15:27;7.37;;;6.40;;
23302;SDS011;11820;48.738;9.092;2023-01-29T04:17:58;8.00;;;7.20;;
23302;SDS011;11820;48.738;9.092;2023-01-29T04:20:24;8.47;;;7.23;;
23302;SDS011;11820;48.738;9.092;2023-01-29T04:22:50;7.00;;;6.30;;
23302;SDS011;11820;48.738;9.092;2023-01-29T04:25:17;8.17;;;6.47;;
23302;SDS011;11820;48.738;9.092;2023-01-29T04:28:00;8.13;;;7.07;;
23302;SDS011;11820;48.738;9.092;2023-01-29T04:38:55;8.23;;;6.00;;
23302;SDS011;11820;48.738;9.092;2023-01-29T04:44:01;7.60;;;6.90;;
23302;SDS011;11820;48.738;9.092;2023-01-29T04:51:42;9.47;;;7.03;;
23302;SDS011;11820;48.738;9.092;2023-01-29T04:54:21;7.53;;;6.70;;
23302;SDS011;11820;48.738;9.092;2023-01-29T04:56:55;8.27;;;7.47;;
23302;SDS011;11820;48.738;9.092;2023-01-29T04:59:28;8.53;;;6.83;;
23302;SDS011;11820;48.738;9.092;2023-01-29T05:01:58;7.23;;;6.53;;
23302;SDS011;11820;48.738;9.092;2023-01-29T05:04:26;9.43;;;7.30;;
23302;SDS011;11820;48.738;9.092;2023-01-29T05:06:55;7.73;;;6.90;;
23302;SDS011;11820;48.738;9.092;2023-01-29T05:09:21;7.10;;;6.27;;
23302;SDS011;11820;48.738;9.092;2023-01-29T05:11:47;8.00;;;6.97;;
23302;SDS011;11820;48.738;9.092;2023-01-29T05:14:14;8.13;;;6.77;;
23302;SDS011;11820;48.738;9.092;2023-01-29T05:16:44;8.57;;;7.30;;
23302;SDS011;11820;48.738;9.092;2023-01-29T05:19:14;7.40;;;6.70;;
23302;SDS011;11820;48.738;9.092;2023-01-29T05:21:42;7.43;;;6.67;;
23302;SDS011;11820;48.738;9.092;2023-01-29T05:24:21;7.43;;;6.73;;
23302;SDS011;11820;48.738;9.092;2023-01-29T05:26:48;7.47;;;6.77;;
23302;SDS011;11820;48.738;9.092;2023-01-29T05:29:34;7.50;;;6.50;;
23302;SDS011;11820;48.738;9.092;2023-01-29T05:32:00;7.90;;;7.10;;
23302;SDS011;11820;48.738;9.092;2023-01-29T05:34:25;7.13;;;6.00;;
23302;SDS011;11820;48.738;9.092;2023-01-29T05:36:51;10.63;;;7.30;;
23302;SDS011;11820;48.738;9.092;2023-01-29T05:39:16;7.47;;;6.77;;
23302;SDS011;11820;48.738;9.092;2023-01-29T05:41:42;8.70;;;6.87;;
23302;SDS011;11820;48.738;9.092;2023-01-29T05:44:10;8.17;;;7.23;;
23302;SDS011;11820;48.738;9.092;2023-01-29T05:46:36;9.40;;;7.00;;
23302;SDS011;11820;48.738;9.092;2023-01-29T05:49:02;7.13;;;6.43;;
23302;SDS011;11820;48.738;9.092;2023-01-29T05:51:27;7.67;;;6.97;;
23302;SDS011;11820;48.738;9.092;2023-01-29T05:53:53;11.67;;;7.60;;
23302;SDS011;11820;48.738;9.092;2023-01-29T05:56:18;9.87;;;7.13;;
23302;SDS011;11820;48.738;9.092;2023-01-29T05:58:44;7.07;;;6.37;;
23302;SDS011;11820;48.738;9.092;2023-01-29T06:01:13;8.30;;;6.80;;
23302;SDS011;11820;48.738;9.092;2023-01-29T06:03:40;7.70;;;6.90;;
23302;SDS011;11820;48.738;9.092;2023-01-29T06:06:06;7.60;;;6.80;;
23302;SDS011;11820;48.738;9.092;2023-01-29T06:08:32;8.83;;;7.23;;
23302;SDS011;11820;48.738;9.092;2023-01-29T06:10:57;8.97;;;7.00;;
23302;SDS011;11820;48.738;9.092;2023-01-29T06:13:22;8.57;;;6.83;;
23302;SDS011;11820;48.738;9.092;2023-01-29T06:15:48;7.73;;;7.03;;
23302;SDS011;11820;48.738;9.092;2023-01-29T06:18:13;7.97;;;7.17;;
23302;SDS011;11820;48.738;9.092;2023-01-29T06:20:38;9.33;;;7.60;;
23302;SDS011;11820;48.738;9.092;2023-01-29T06:23:04;8.50;;;7.60;;
23302;SDS011;11820;48.738;9.092;2023-01-29T06:25:29;10.00;;;7.90;;
23302;SDS011;11820;48.738;9.092;2023-01-29T06:27:55;8.90;;;7.37;;
23302;SDS011;11820;48.738;9.092;2023-01-29T06:30:21;8.53;;;6.63;;
23302;SDS011;11820;48.738;9.092;2023-01-29T06:32:46;9.63;;;7.17;;
23302;SDS011;11820;48.738;9.092;2023-01-29T06:35:11;8.13;;;7.13;;
23302;SDS011;11820;48.738;9.092;2023-01-29T06:37:37;7.40;;;6.60;;
23302;SDS011;11820;48.738;9.092;2023-01-29T06:40:02;8.43;;;6.87;;
23302;SDS011;11820;48.738;9.092;2023-01-29T06:42:28;8.20;;;7.40;;
23302;SDS011;11820;48.738;9.092;2023-01-29T06:44:54;7.73;;;6.93;;
23302;SDS011;11820;48.738;9.092;2023-01-29T06:47:20;7.67;;;6.97;;
23302;SDS011;11820;48.738;9.092;2023-01-29T06:49:45;8.30;;;6.70;;
23302;SDS011;11820;48.738;9.092;2023-01-29T06:52:10;8.57;;;7.67;;
23302;SDS011;11820;48.738;9.092;2023-01-29T06:54:36;8.50;;;7.20;;
23302;SDS011;11820;48.738;9.092;2023-01-29T06:57:01;8.67;;;6.87;;
23302;SDS011;11820;48.738;9.092;2023-01-29T06:59:26;9.40;;;7.43;;
23302;SDS011;11820;48.738;9.092;2023-01-29T07:01:52;8.83;;;7.00;;
23302;SDS011;11820;48.738;9.092;2023-01-29T07:04:17;9.73;;;7.57;;
23302;SDS011;11820;48.738;9.092;2023-01-29T07:06:42;9.80;;;7.80;;
23302;SDS011;11820;48.738;9.092;2023-01-29T07:09:10;10.33;;;8.40;;
23302;SDS011;11820;48.738;9.092;2023-01-29T07:11:36;9.03;;;7.40;;
23302;SDS011;11820;48.738;9.092;2023-01-29T07:14:02;8.63;;;7.70;;
23302;SDS011;11820;48.738;9.092;2023-01-29T07:16:27;8.90;;;7.17;;
23302;SDS011;11820;48.738;9.092;2023-01-29T07:18:53;10.30;;;7.50;;
23302;SDS011;11820;48.738;9.092;2023-01-29T07:21:18;8.43;;;7.53;;
23302;SDS011;11820;48.738;9.092;2023-01-29T07:23:43;9.40;;;7.87;;
23302;SDS011;11820;48.738;9.092;2023-01-29T07:26:09;10.00;;;8.20;;
23302;SDS011;11820;48.738;9.092;2023-01-29T07:28:38;7.90;;;7.10;;
23302;SDS011;11820;48.738;9.092;2023-01-29T07:31:04;10.50;;;7.87;;
23302;SDS011;11820;48.738;9.092;2023-01-29T07:33:30;8.00;;;7.20;;
23302;SDS011;11820;48.738;9.092;2023-01-29T07:35:56;7.90;;;7.20;;
23302;SDS011;11820;48.738;9.092;2023-01-29T07:38:22;9.67;;;8.03;;
23302;SDS011;11820;48.738;9.092;2023-01-29T07:40:47;9.10;;;7.50;;
23302;SDS011;11820;48.738;9.092;2023-01-29T07:43:13;8.83;;;7.93;;
23302;SDS011;11820;48.738;9.092;2023-01-29T07:45:38;7.97;;;7.20;;
23302;SDS011;11820;48.738;9.092;2023-01-29T07:48:04;8.43;;;7.60;;
23302;SDS011;11820;48.738;9.092;2023-01-29T07:50:32;10.10;;;8.30;;
23302;SDS011;11820;48.738;9.092;2023-01-29T07:52:58;10.10;;;7.47;;
23302;SDS011;11820;48.738;9.092;2023-01-29T07:55:24;9.60;;;7.20;;
23302;SDS011;11820;48.738;9.092;2023-01-29T07:57:57;8.33;;;7.50;;
23302;SDS011;11820;48.738;9.092;2023-01-29T08:00:24;8.23;;;7.27;;
23302;SDS011;11820;48.738;9.092;2023-01-29T08:02:50;8.47;;;7.57;;
23302;SDS011;11820;48.738;9.092;2023-01-29T08:05:15;8.77;;;7.60;;
23302;SDS011;11820;48.738;9.092;2023-01-29T08:07:41;8.87;;;7.90;;
23302;SDS011;11820;48.738;9.092;2023-01-29T08:10:06;9.27;;;7.70;;
23302;SDS011;11820;48.738;9.092;2023-01-29T08:12:32;9.73;;;8.60;;
23302;SDS011;11820;48.738;9.092;2023-01-29T08:14:57;8.83;;;7.93;;
23302;SDS011;11820;48.738;9.092;2023-01-29T08:17:22;8.50;;;7.70;;
23302;SDS011;11820;48.738;9.092;2023-01-29T08:19:48;9.50;;;8.50;;
23302;SDS011;11820;48.738;9.092;2023-01-29T08:22:13;8.30;;;7.50;;
23302;SDS011;11820;48.738;9.092;2023-01-29T08:24:40;8.57;;;7.70;;
23302;SDS011;11820;48.738;9.092;2023-01-29T08:27:05;9.17;;;8.27;;
23302;SDS011;11820;48.738;9.092;2023-01-29T08:29:31;7.90;;;7.20;;
23302;SDS011;11820;48.738;9.092;2023-01-29T08:31:56;8.73;;;7.80;;
23302;SDS011;11820;48.738;9.092;2023-01-29T08:34:21;8.20;;;7.30;;
23302;SDS011;11820;48.738;9.092;2023-01-29T08:36:47;8.00;;;7.20;;
23302;SDS011;11820;48.738;9.092;2023-01-29T08:39:12;9.00;;;8.00;;
23302;SDS011;11820;48.738;9.092;2023-01-29T08:41:37;8.60;;;7.43;;
23302;SDS011;11820;48.738;9.092;2023-01-29T08:44:03;10.00;;;7.70;;
23302;SDS011;11820;48.738;9.092;2023-01-29T08:46:29;9.27;;;8.20;;
23302;SDS011;11820;48.738;9.092;2023-01-29T08:48:55;8.67;;;7.70;;
23302;SDS011;11820;48.738;9.092;2023-01-29T08:51:20;8.37;;;7.53;;
23302;SDS011;11820;48.738;9.092;2023-01-29T08:53:46;9.03;;;7.77;;
23302;SDS011;11820;48.738;9.092;2023-01-29T08:56:11;8.90;;;8.00;;
23302;SDS011;11820;48.738;9.092;2023-01-29T08:58:37;7.87;;;7.17;;
23302;SDS011;11820;48.738;9.092;2023-01-29T09:01:09;9.07;;;7.80;;
23302;SDS011;11820;48.738;9.092;2023-01-29T09:03:36;8.40;;;7.50;;
23302;SDS011;11820;48.738;9.092;2023-01-29T09:06:05;8.80;;;8.00;;
23302;SDS011;11820;48.738;9.092;2023-01-29T09:08:31;9.40;;;7.50;;
23302;SDS011;11820;48.738;9.092;2023-01-29T09:10:59;8.60;;;7.77;;
23302;SDS011;11820;48.738;9.092;2023-01-29T09:13:25;8.63;;;7.83;;
23302;SDS011;11820;48.738;9.092;2023-01-29T09:15:50;9.67;;;7.40;;
23302;SDS011;11820;48.738;9.092;2023-01-29T09:18:15;7.57;;;6.83;;
23302;SDS011;11820;48.738;9.092;2023-01-29T09:20:41;8.17;;;7.37;;
23302;SDS011;11820;48.738;9.092;2023-01-29T09:23:07;8.83;;;7.60;;
23302;SDS011;11820;48.738;9.092;2023-01-29T09:25:34;8.47;;;7.67;;
23302;SDS011;11820;48.738;9.092;2023-01-29T09:28:00;8.40;;;7.60;;
23302;SDS011;11820;48.738;9.092;2023-01-29T09:30:25;8.13;;;7.33;;
23302;SDS011;11820;48.738;9.092;2023-01-29T09:32:50;9.27;;;7.67;;
23302;SDS011;11820;48.738;9.092;2023-01-29T09:35:16;8.63;;;7.77;;
23302;SDS011;11820;48.738;9.092;2023-01-29T09:37:41;8.40;;;7.60;;
23302;SDS011;11820;48.738;9.092;2023-01-29T09:40:06;8.40;;;7.60;;
23302;SDS011;11820;48.738;9.092;2023-01-29T09:45:55;9.83;;;7.60;;
23302;SDS011;11820;48.738;9.092;2023-01-29T09:48:25;8.10;;;7.30;;
23302;SDS011;11820;48.738;9.092;2023-01-29T09:50:55;9.17;;;8.27;;
23302;SDS011;11820;48.738;9.092;2023-01-29T09:56:03;8.07;;;7.27;;
23302;SDS011;11820;48.738;9.092;2023-01-29T09:58:39;7.77;;;7.07;;
23302;SDS011;11820;48.738;9.092;2023-01-29T10:09:54;11.57;;;8.40;;
23302;SDS011;11820;48.738;9.092;2023-01-29T10:20:19;11.03;;;7.53;;
23302;SDS011;11820;48.738;9.092;2023-01-29T10:25:51;8.30;;;7.50;;
23302;SDS011;11820;48.738;9.092;2023-01-29T10:28:19;9.23;;;8.33;;
23302;SDS011;11820;48.738;9.092;2023-01-29T10:30:50;9.63;;;8.67;;
23302;SDS011;11820;48.738;9.092;2023-01-29T10:33:24;9.07;;;8.17;;
23302;SDS011;11820;48.738;9.092;2023-01-29T10:36:04;8.73;;;7.93;;
23302;SDS011;11820;48.738;9.092;2023-01-29T10:38:43;8.33;;;7.53;;
23302;SDS011;11820;48.738;9.092;2023-01-29T10:44:06;8.10;;;7.30;;
23302;SDS011;11820;48.738;9.092;2023-01-29T10:46:40;8.70;;;7.83;;
23302;SDS011;11820;48.738;9.092;2023-01-29T10:52:29;8.23;;;7.40;;
23302;SDS011;11820;48.738;9.092;2023-01-29T11:00:44;8.17;;;7.37;;
23302;SDS011;11820;48.738;9.092;2023-01-29T11:03:14;9.37;;;7.90;;
23302;SDS011;11820;48.738;9.092;2023-01-29T11:05:42;8.57;;;7.70;;
23302;SDS011;11820;48.738;9.092;2023-01-29T11:08:17;9.00;;;7.73;;
23302;SDS011;11820;48.738;9.092;2023-01-29T11:13:26;13.27;;;8.20;;
23302;SDS011;11820;48.738;9.092;2023-01-29T11:15:56;10.17;;;8.97;;
23302;SDS011;11820;48.738;9.092;2023-01-29T11:18:21;8.43;;;7.47;;
23302;SDS011;11820;48.738;9.092;2023-01-29T11:20:47;8.43;;;7.63;;
23302;SDS011;11820;48.738;9.092;2023-01-29T11:23:31;8.13;;;7.33;;
23302;SDS011;11820;48.738;9.092;2023-01-29T11:25:59;9.67;;;8.67;;
23302;SDS011;11820;48.738;9.092;2023-01-29T11:28:36;8.63;;;7.77;;
23302;SDS011;11820;48.738;9.092;2023-01-29T11:34:00;9.23;;;8.37;;
23302;SDS011;11820;48.738;9.092;2023-01-29T11:36:37;9.40;;;8.07;;
23302;SDS011;11820;48.738;9.092;2023-01-29T11:39:07;9.10;;;8.20;;
23302;SDS011;11820;48.738;9.092;2023-01-29T11:41:41;9.53;;;8.63;;
23302;SDS011;11820;48.738;9.092;2023-01-29T11:44:16;9.53;;;8.53;;
23302;SDS011;11820;48.738;9.092;2023-01-29T11:46:42;8.80;;;7.90;;
23302;SDS011;11820;48.738;9.092;2023-01-29T11:49:11;9.00;;;8.20;;
23302;SDS011;11820;48.738;9.092;2023-01-29T11:51:50;9.37;;;8.47;;
23302;SDS011;11820;48.738;9.092;2023-01-29T11:54:18;9.87;;;8.87;;
23302;SDS011;11820;48.738;9.092;2023-01-29T11:56:46;9.07;;;8.20;;
23302;SDS011;11820;48.738;9.092;2023-01-29T12:02:17;10.40;;;8.77;;
23302;SDS011;11820;48.738;9.092;2023-01-29T12:04:47;9.23;;;8.27;;
23302;SDS011;11820;48.738;9.092;2023-01-29T12:07:15;9.27;;;8.27;;
23302;SDS011;11820;48.738;9.092;2023-01-29T12:09:51;10.60;;;8.23;;
23302;SDS011;11820;48.738;9.092;2023-01-29T12:12:35;8.77;;;7.97;;
23302;SDS011;11820;48.738;9.092;2023-01-29T12:15:14;8.70;;;7.90;;
23302;SDS011;11820;48.738;9.092;2023-01-29T12:17:42;10.80;;;8.03;;
23302;SDS011;11820;48.738;9.092;2023-01-29T12:20:16;9.57;;;8.27;;
23302;SDS011;11820;48.738;9.092;2023-01-29T12:33:50;11.53;;;7.97;;
23302;SDS011;11820;48.738;9.092;2023-01-29T12:36:23;12.80;;;8.97;;
23302;SDS011;11820;48.738;9.092;2023-01-29T12:38:52;10.80;;;8.80;;
23302;SDS011;11820;48.738;9.092;2023-01-29T12:41:33;9.73;;;8.73;;
23302;SDS011;11820;48.738;9.092;2023-01-29T12:44:15;9.70;;;8.60;;
23302;SDS011;11820;48.738;9.092;2023-01-29T12:46:46;11.10;;;8.50;;
23302;SDS011;11820;48.738;9.092;2023-01-29T12:49:17;10.33;;;9.23;;
23302;SDS011;11820;48.738;9.092;2023-01-29T12:51:50;9.50;;;8.53;;
23302;SDS011;11820;48.738;9.092;2023-01-29T12:54:23;10.67;;;8.53;;
23302;SDS011;11820;48.738;9.092;2023-01-29T12:57:19;9.73;;;8.73;;
23302;SDS011;11820;48.738;9.092;2023-01-29T12:59:51;9.53;;;8.50;;
23302;SDS011;11820;48.738;9.092;2023-01-29T13:05:19;10.23;;;8.30;;
23302;SDS011;11820;48.738;9.092;2023-01-29T13:08:13;10.37;;;7.80;;
23302;SDS011;11820;48.738;9.092;2023-01-29T13:10:56;8.87;;;7.97;;
23302;SDS011;11820;48.738;9.092;2023-01-29T13:16:20;10.37;;;7.50;;
23302;SDS011;11820;48.738;9.092;2023-01-29T13:18:59;9.83;;;8.83;;
23302;SDS011;11820;48.738;9.092;2023-01-29T13:21:30;8.97;;;7.97;;
23302;SDS011;11820;48.738;9.092;2023-01-29T13:24:04;9.30;;;8.23;;
23302;SDS011;11820;48.738;9.092;2023-01-29T13:26:36;7.87;;;7.17;;
23302;SDS011;11820;48.738;9.092;2023-01-29T13:29:02;8.80;;;7.90;;
23302;SDS011;11820;48.738;9.092;2023-01-29T13:31:36;8.53;;;7.73;;
23302;SDS011;11820;48.738;9.092;2023-01-29T13:37:08;8.30;;;7.50;;
23302;SDS011;11820;48.738;9.092;2023-01-29T13:39:44;7.87;;;6.80;;
23302;SDS011;11820;48.738;9.092;2023-01-29T13:44:49;8.60;;;7.03;;
23302;SDS011;11820;48.738;9.092;2023-01-29T13:47:25;9.23;;;8.07;;
23302;SDS011;11820;48.738;9.092;2023-01-29T13:49:53;8.03;;;7.23;;
23302;SDS011;11820;48.738;9.092;2023-01-29T13:52:25;8.57;;;7.77;;
23302;SDS011;11820;48.738;9.092;2023-01-29T14:00:46;8.30;;;7.50;;
23302;SDS011;11820;48.738;9.092;2023-01-29T14:10:38;9.67;;;8.57;;
23302;SDS011;11820;48.738;9.092;2023-01-29T14:15:45;9.10;;;8.20;;
23302;SDS011;11820;48.738;9.092;2023-01-29T14:18:27;8.67;;;7.73;;
23302;SDS011;11820;48.738;9.092;2023-01-29T14:21:04;9.13;;;8.23;;
23302;SDS011;11820;48.738;9.092;2023-01-29T14:29:06;8.77;;;7.90;;
23302;SDS011;11820;48.738;9.092;2023-01-29T14:36:44;10.13;;;8.90;;
23302;SDS011;11820;48.738;9.092;2023-01-29T14:39:18;11.47;;;8.37;;
23302;SDS011;11820;48.738;9.092;2023-01-29T14:41:48;9.70;;;8.70;;
23302;SDS011;11820;48.738;9.092;2023-01-29T14:49:59;10.17;;;8.27;;
23302;SDS011;11820;48.738;9.092;2023-01-29T14:52:36;11.93;;;9.23;;
23302;SDS011;11820;48.738;9.092;2023-01-29T14:55:17;10.03;;;8.60;;
23302;SDS011;11820;48.738;9.092;2023-01-29T14:58:03;11.10;;;8.40;;
23302;SDS011;11820;48.738;9.092;2023-01-29T15:00:30;10.53;;;8.90;;
23302;SDS011;11820;48.738;9.092;2023-01-29T15:03:01;9.83;;;8.73;;
23302;SDS011;11820;48.738;9.092;2023-01-29T15:05:36;10.83;;;9.07;;
23302;SDS011;11820;48.738;9.092;2023-01-29T15:08:07;9.60;;;8.60;;
23302;SDS011;11820;48.738;9.092;2023-01-29T15:10:47;10.63;;;8.77;;
23302;SDS011;11820;48.738;9.092;2023-01-29T15:13:41;11.20;;;9.37;;
23302;SDS011;11820;48.738;9.092;2023-01-29T15:16:19;9.63;;;8.63;;
23302;SDS011;11820;48.738;9.092;2023-01-29T15:18:49;10.60;;;9.27;;
23302;SDS011;11820;48.738;9.092;2023-01-29T15:21:20;11.53;;;9.30;;
23302;SDS011;11820;48.738;9.092;2023-01-29T15:23:45;9.27;;;8.27;;
23302;SDS011;11820;48.738;9.092;2023-01-29T15:26:18;10.60;;;9.50;;
23302;SDS011;11820;48.738;9.092;2023-01-29T15:28:52;12.23;;;9.67;;
23302;SDS011;11820;48.738;9.092;2023-01-29T15:31:18;10.80;;;9.47;;
23302;SDS011;11820;48.738;9.092;2023-01-29T15:33:44;15.13;;;9.40;;
23302;SDS011;11820;48.738;9.092;2023-01-29T15:36:19;12.93;;;9.27;;
23302;SDS011;11820;48.738;9.092;2023-01-29T15:38:47;12.97;;;9.17;;
23302;SDS011;11820;48.738;9.092;2023-01-29T15:41:17;10.87;;;9.47;;
23302;SDS011;11820;48.738;9.092;2023-01-29T15:43:47;10.33;;;8.73;;
23302;SDS011;11820;48.738;9.092;2023-01-29T15:46:22;10.43;;;9.13;;
23302;SDS011;11820;48.738;9.092;2023-01-29T15:48:50;10.07;;;9.07;;
23302;SDS011;11820;48.738;9.092;2023-01-29T15:51:19;10.93;;;9.83;;
23302;SDS011;11820;48.738;9.092;2023-01-29T15:53:58;11.00;;;9.33;;
23302;SDS011;11820;48.738;9.092;2023-01-29T15:57:10;10.80;;;9.70;;
23302;SDS011;11820;48.738;9.092;2023-01-29T15:59:21;10.23;;;9.23;;
23302;SDS011;11820;48.738;9.092;2023-01-29T16:01:49;11.73;;;9.90;;
23302;SDS011;11820;48.738;9.092;2023-01-29T16:04:27;12.03;;;9.27;;
23302;SDS011;11820;48.738;9.092;2023-01-29T16:06:55;9.97;;;8.97;;
23302;SDS011;11820;48.738;9.092;2023-01-29T16:09:22;11.23;;;9.07;;
23302;SDS011;11820;48.738;9.092;2023-01-29T16:11:50;12.40;;;9.60;;
23302;SDS011;11820;48.738;9.092;2023-01-29T16:14:19;10.50;;;9.43;;
23302;SDS011;11820;48.738;9.092;2023-01-29T16:16:47;11.20;;;8.97;;
23302;SDS011;11820;48.738;9.092;2023-01-29T16:19:26;10.40;;;9.03;;
23302;SDS011;11820;48.738;9.092;2023-01-29T16:22:00;12.37;;;9.90;;
23302;SDS011;11820;48.738;9.092;2023-01-29T16:24:27;10.53;;;8.97;;
23302;SDS011;11820;48.738;9.092;2023-01-29T16:26:56;12.47;;;9.77;;
23302;SDS011;11820;48.738;9.092;2023-01-29T16:29:31;11.23;;;9.97;;
23302;SDS011;11820;48.738;9.092;2023-01-29T16:31:59;13.60;;;10.50;;
23302;SDS011;11820;48.738;9.092;2023-01-29T16:34:31;13.30;;;10.97;;
23302;SDS011;11820;48.738;9.092;2023-01-29T16:37:00;15.47;;;11.73;;
23302;SDS011;11820;48.738;9.092;2023-01-29T16:39:34;12.83;;;10.30;;
23302;SDS011;11820;48.738;9.092;2023-01-29T16:44:35;12.00;;;10.10;;
23302;SDS011;11820;48.738;9.092;2023-01-29T16:47:06;12.37;;;10.60;;
23302;SDS011;11820;48.738;9.092;2023-01-29T16:49:50;11.23;;;9.90;;
23302;SDS011;11820;48.738;9.092;2023-01-29T16:52:28;10.70;;;9.33;;
23302;SDS011;11820;48.738;9.092;2023-01-29T16:55:41;14.00;;;10.37;;
23302;SDS011;11820;48.738;9.092;2023-01-29T16:57:54;11.57;;;10.37;;
23302;SDS011;11820;48.738;9.092;2023-01-29T17:00:26;12.33;;;10.30;;
23302;SDS011;11820;48.738;9.092;2023-01-29T17:03:03;14.57;;;11.30;;
23302;SDS011;11820;48.738;9.092;2023-01-29T17:05:32;12.97;;;10.60;;
23302;SDS011;11820;48.738;9.092;2023-01-29T17:08:01;12.30;;;10.13;;
23302;SDS011;11820;48.738;9.092;2023-01-29T17:10:28;12.17;;;9.87;;
23302;SDS011;11820;48.738;9.092;2023-01-29T17:13:04;13.00;;;10.63;;
23302;SDS011;11820;48.738;9.092;2023-01-29T17:18:20;11.13;;;9.20;;
23302;SDS011;11820;48.738;9.092;2023-01-29T17:20:47;10.17;;;9.17;;
23302;SDS011;11820;48.738;9.092;2023-01-29T17:23:12;11.07;;;9.20;;
23302;SDS011;11820;48.738;9.092;2023-01-29T17:25:38;12.83;;;10.43;;
23302;SDS011;11820;48.738;9.092;2023-01-29T17:28:04;11.70;;;9.27;;
23302;SDS011;11820;48.738;9.092;2023-01-29T17:30:30;9.60;;;8.03;;
23302;SDS011;11820;48.738;9.092;2023-01-29T17:32:58;10.67;;;9.53;;
23302;SDS011;11820;48.738;9.092;2023-01-29T17:35:34;9.93;;;8.87;;
23302;SDS011;11820;48.738;9.092;2023-01-29T17:38:00;11.37;;;9.10;;
23302;SDS011;11820;48.738;9.092;2023-01-29T17:40:33;12.97;;;9.47;;
23302;SDS011;11820;48.738;9.092;2023-01-29T17:43:03;11.17;;;10.00;;